createdAt,value
2018-03-29T00:00:13.445Z,999.68
2018-03-29T00:01:12.999Z,999.69
2018-03-29T00:02:13.743Z,999.70
2018-03-29T00:03:12.833Z,999.68
2018-03-29T00:04:12.828Z,999.71
2018-03-29T00:05:12.688Z,999.71
2018-03-29T00:06:12.638Z,999.63
2018-03-29T00:07:12.500Z,999.71
2018-03-29T00:08:12.545Z,999.73
2018-03-29T00:09:12.356Z,999.71
2018-03-29T00:10:12.392Z,999.73
2018-03-29T00:11:12.167Z,999.74
2018-03-29T00:12:12.161Z,999.74
2018-03-29T00:13:12.007Z,999.79
2018-03-29T00:14:11.969Z,999.74
2018-03-29T00:15:11.906Z,999.79
2018-03-29T00:16:11.874Z,999.74
2018-03-29T00:17:11.674Z,999.71
2018-03-29T00:18:11.710Z,999.70
2018-03-29T00:19:11.511Z,999.71
2018-03-29T00:20:11.534Z,999.74
2018-03-29T00:21:11.349Z,999.80
2018-03-29T00:22:11.305Z,999.75
2018-03-29T00:23:11.191Z,999.79
2018-03-29T00:24:11.212Z,999.82
2018-03-29T00:25:11.048Z,999.82
2018-03-29T00:26:11.037Z,999.81
2018-03-29T00:27:10.858Z,999.79
2018-03-29T00:28:10.835Z,999.81
2018-03-29T00:29:10.689Z,999.80
2018-03-29T00:30:10.673Z,999.82
2018-03-29T00:31:10.530Z,999.84
2018-03-29T00:32:10.549Z,999.83
2018-03-29T00:33:10.364Z,999.86
2018-03-29T00:34:10.365Z,999.87
2018-03-29T00:35:10.226Z,999.87
2018-03-29T00:36:10.201Z,999.85
2018-03-29T00:37:10.043Z,999.89
2018-03-29T00:38:10.078Z,999.89
2018-03-29T00:39:09.871Z,999.94
2018-03-29T00:40:09.893Z,999.89
2018-03-29T00:41:09.720Z,999.99
2018-03-29T00:42:09.737Z,999.94
2018-03-29T00:43:09.542Z,999.98
2018-03-29T00:44:09.503Z,999.96
2018-03-29T00:45:09.383Z,1000.04
2018-03-29T00:46:09.410Z,999.97
2018-03-29T00:47:09.238Z,1000.00
2018-03-29T00:48:09.219Z,1000.02
2018-03-29T00:49:09.043Z,1000.00
2018-03-29T00:50:09.039Z,1000.02
2018-03-29T00:51:09.015Z,1000.01
2018-03-29T00:52:08.837Z,1000.08
2018-03-29T00:53:08.737Z,1000.08
2018-03-29T00:54:08.794Z,1000.06
2018-03-29T00:55:08.555Z,1000.14
2018-03-29T00:56:08.564Z,1000.05
2018-03-29T00:57:08.393Z,1000.12
2018-03-29T00:58:08.395Z,1000.11
2018-03-29T00:59:08.243Z,1000.12
2018-03-29T01:00:08.176Z,1000.13
2018-03-29T01:01:08.065Z,1000.16
2018-03-29T01:02:08.086Z,1000.14
2018-03-29T01:03:07.919Z,1000.13
2018-03-29T01:04:07.898Z,1000.16
2018-03-29T01:05:07.733Z,1000.16
2018-03-29T01:06:07.699Z,1000.14
2018-03-29T01:07:07.568Z,1000.19
2018-03-29T01:08:07.548Z,1000.16
2018-03-29T01:09:07.414Z,1000.17
2018-03-29T01:10:07.429Z,1000.19
2018-03-29T01:11:07.263Z,1000.18
2018-03-29T01:12:07.228Z,1000.19
2018-03-29T01:13:07.087Z,1000.17
2018-03-29T01:14:07.084Z,1000.16
2018-03-29T01:15:06.916Z,1000.23
2018-03-29T01:16:06.949Z,1000.19
2018-03-29T01:17:06.750Z,1000.16
2018-03-29T01:18:06.752Z,1000.22
2018-03-29T01:19:06.602Z,1000.20
2018-03-29T01:20:06.572Z,1000.17
2018-03-29T01:21:06.419Z,1000.23
2018-03-29T01:22:06.379Z,1000.24
2018-03-29T01:23:06.260Z,1000.22
2018-03-29T01:24:06.327Z,1000.23
2018-03-29T01:25:06.101Z,1000.23
2018-03-29T01:26:06.103Z,1000.25
2018-03-29T01:27:05.931Z,1000.22
2018-03-29T01:28:05.903Z,1000.25
2018-03-29T01:29:05.796Z,1000.24
2018-03-29T01:30:05.814Z,1000.26
2018-03-29T01:31:05.598Z,1000.25
2018-03-29T01:32:05.630Z,1000.27
2018-03-29T01:33:05.442Z,1000.27
2018-03-29T01:34:05.435Z,1000.29
2018-03-29T01:35:05.289Z,1000.23
2018-03-29T01:36:05.238Z,1000.27
2018-03-29T01:37:05.104Z,1000.30
2018-03-29T01:38:05.150Z,1000.31
2018-03-29T01:39:04.947Z,1000.30
2018-03-29T01:40:04.991Z,1000.26
2018-03-29T01:41:04.807Z,1000.32
2018-03-29T01:42:04.766Z,1000.39
2018-03-29T01:43:04.610Z,1000.37
2018-03-29T01:44:04.681Z,1000.38
2018-03-29T01:45:04.478Z,1000.41
2018-03-29T01:46:04.486Z,1000.42
2018-03-29T01:47:04.291Z,1000.43
2018-03-29T01:48:04.290Z,1000.42
2018-03-29T01:49:04.120Z,1000.45
2018-03-29T01:50:04.127Z,1000.45
2018-03-29T01:51:03.967Z,1000.49
2018-03-29T01:52:03.913Z,1000.46
2018-03-29T01:53:03.796Z,1000.51
2018-03-29T01:54:03.820Z,1000.50
2018-03-29T01:55:03.637Z,1000.51
2018-03-29T01:56:03.668Z,1000.53
2018-03-29T01:57:03.464Z,1000.57
2018-03-29T01:58:03.452Z,1000.57
2018-03-29T01:59:03.308Z,1000.57
2018-03-29T02:00:03.350Z,1000.57
2018-03-29T02:01:03.157Z,1000.51
2018-03-29T02:02:03.188Z,1000.58
2018-03-29T02:03:03.005Z,1000.54
2018-03-29T02:04:03.072Z,1000.54
2018-03-29T02:05:02.808Z,1000.61
2018-03-29T02:06:02.806Z,1000.57
2018-03-29T02:07:02.655Z,1000.56
2018-03-29T02:08:02.686Z,1000.58
2018-03-29T02:09:02.482Z,1000.59
2018-03-29T02:10:02.506Z,1000.61
2018-03-29T02:11:02.339Z,1000.62
2018-03-29T02:12:02.305Z,1000.62
2018-03-29T02:13:02.152Z,1000.63
2018-03-29T02:14:02.216Z,1000.57
2018-03-29T02:15:01.992Z,1000.59
2018-03-29T02:16:02.061Z,1000.67
2018-03-29T02:17:02.766Z,1000.64
2018-03-29T02:18:01.830Z,1000.66
2018-03-29T02:19:01.663Z,1000.69
2018-03-29T02:20:01.644Z,1000.72
2018-03-29T02:21:01.510Z,1000.69
2018-03-29T02:22:01.549Z,1000.72
2018-03-29T02:23:01.335Z,1000.73
2018-03-29T02:24:01.356Z,1000.74
2018-03-29T02:25:01.168Z,1000.73
2018-03-29T02:26:01.189Z,1000.72
2018-03-29T02:27:01.012Z,1000.76
2018-03-29T02:28:00.976Z,1000.75
2018-03-29T02:29:00.851Z,1000.76
2018-03-29T02:30:00.884Z,1000.73
2018-03-29T02:31:00.695Z,1000.76
2018-03-29T02:32:00.692Z,1000.76
2018-03-29T02:33:00.518Z,1000.76
2018-03-29T02:34:00.502Z,1000.78
2018-03-29T02:35:00.352Z,1000.76
2018-03-29T02:36:00.348Z,1000.71
2018-03-29T02:37:00.237Z,1000.77
2018-03-29T02:38:00.222Z,1000.72
2018-03-29T02:39:00.024Z,1000.77
2018-03-29T02:40:00.075Z,1000.73
2018-03-29T02:40:59.862Z,1000.80
2018-03-29T02:41:59.870Z,1000.78
2018-03-29T02:42:59.698Z,1000.79
2018-03-29T02:43:59.747Z,1000.86
2018-03-29T02:44:59.526Z,1000.81
2018-03-29T02:45:59.555Z,1000.78
2018-03-29T02:46:59.385Z,1000.82
2018-03-29T02:47:59.370Z,1000.85
2018-03-29T02:48:59.205Z,1000.84
2018-03-29T02:49:59.175Z,1000.84
2018-03-29T02:50:59.034Z,1000.88
2018-03-29T02:51:59.116Z,1000.85
2018-03-29T02:52:58.877Z,1000.86
2018-03-29T02:53:58.892Z,1000.85
2018-03-29T02:54:58.720Z,1000.83
2018-03-29T02:55:58.704Z,1000.88
2018-03-29T02:56:58.548Z,1000.90
2018-03-29T02:57:58.542Z,1000.91
2018-03-29T02:58:58.380Z,1000.88
2018-03-29T02:59:58.424Z,1000.93
2018-03-29T03:00:58.225Z,1000.93
2018-03-29T03:01:58.233Z,1000.87
2018-03-29T03:02:58.075Z,1000.86
2018-03-29T03:03:58.043Z,1000.93
2018-03-29T03:04:57.898Z,1000.92
2018-03-29T03:05:57.849Z,1000.88
2018-03-29T03:06:57.741Z,1000.86
2018-03-29T03:07:57.784Z,1000.93
2018-03-29T03:08:57.569Z,1000.96
2018-03-29T03:09:57.665Z,1000.93
2018-03-29T03:10:57.413Z,1000.99
2018-03-29T03:11:57.392Z,1000.91
2018-03-29T03:12:57.245Z,1000.97
2018-03-29T03:13:57.237Z,1000.98
2018-03-29T03:14:57.080Z,1000.98
2018-03-29T03:15:57.098Z,1000.97
2018-03-29T03:16:56.909Z,1000.94
2018-03-29T03:17:56.904Z,1000.98
2018-03-29T03:18:56.760Z,1000.94
2018-03-29T03:19:56.705Z,1000.99
2018-03-29T03:20:56.579Z,1001.00
2018-03-29T03:21:56.615Z,1000.88
2018-03-29T03:22:56.410Z,1000.95
2018-03-29T03:23:56.467Z,1000.89
2018-03-29T03:24:56.259Z,1000.86
2018-03-29T03:25:56.245Z,1000.84
2018-03-29T03:26:56.104Z,1000.81
2018-03-29T03:27:56.074Z,1000.84
2018-03-29T03:28:55.935Z,1000.77
2018-03-29T03:29:56.012Z,1000.79
2018-03-29T03:30:55.764Z,1000.77
2018-03-29T03:31:55.763Z,1000.78
2018-03-29T03:32:55.592Z,1000.76
2018-03-29T03:33:55.601Z,1000.75
2018-03-29T03:34:55.431Z,1000.74
2018-03-29T03:35:55.389Z,1000.77
2018-03-29T03:36:55.270Z,1000.78
2018-03-29T03:37:55.292Z,1000.78
2018-03-29T03:38:55.118Z,1000.80
2018-03-29T03:39:55.111Z,1000.83
2018-03-29T03:40:54.948Z,1000.87
2018-03-29T03:41:54.907Z,1000.92
2018-03-29T03:42:54.916Z,1000.95
2018-03-29T03:43:54.749Z,1000.95
2018-03-29T03:44:54.617Z,1000.97
2018-03-29T03:45:54.702Z,1001.00
2018-03-29T03:46:54.446Z,1000.96
2018-03-29T03:47:54.438Z,1001.00
2018-03-29T03:48:54.309Z,1000.98
2018-03-29T03:49:54.286Z,1000.99
2018-03-29T03:50:54.118Z,1001.00
2018-03-29T03:51:54.161Z,1000.99
2018-03-29T03:52:53.954Z,1000.96
2018-03-29T03:53:53.970Z,1000.99
2018-03-29T03:54:53.818Z,1000.98
2018-03-29T03:55:53.777Z,1000.98
2018-03-29T03:56:53.630Z,1000.98
2018-03-29T03:57:53.579Z,1001.00
2018-03-29T03:58:53.457Z,1001.00
2018-03-29T03:59:53.516Z,1001.06
2018-03-29T04:00:53.298Z,1001.04
2018-03-29T04:01:53.310Z,1001.08
2018-03-29T04:02:53.255Z,1001.06
2018-03-29T04:03:53.131Z,1001.07
2018-03-29T04:04:52.976Z,1001.07
2018-03-29T04:05:53.074Z,1001.06
2018-03-29T04:06:52.803Z,1001.06
2018-03-29T04:07:52.834Z,1001.03
2018-03-29T04:08:52.644Z,1001.06
2018-03-29T04:09:52.673Z,1001.06
2018-03-29T04:10:52.493Z,1001.10
2018-03-29T04:11:52.445Z,1001.09
2018-03-29T04:12:52.316Z,1001.13
2018-03-29T04:13:52.354Z,1001.09
2018-03-29T04:14:52.154Z,1001.09
2018-03-29T04:15:52.195Z,1001.04
2018-03-29T04:16:51.988Z,1001.03
2018-03-29T04:17:51.975Z,1000.97
2018-03-29T04:18:51.828Z,1001.08
2018-03-29T04:19:51.784Z,1001.04
2018-03-29T04:20:51.685Z,1001.08
2018-03-29T04:21:51.689Z,1001.07
2018-03-29T04:22:51.577Z,1001.09
2018-03-29T04:23:51.504Z,1001.04
2018-03-29T04:24:51.350Z,1001.07
2018-03-29T04:25:51.341Z,1001.07
2018-03-29T04:26:51.173Z,1001.09
2018-03-29T04:27:51.218Z,1001.05
2018-03-29T04:28:51.004Z,1001.07
2018-03-29T04:29:51.024Z,1001.07
2018-03-29T04:30:50.858Z,1001.04
2018-03-29T04:31:50.866Z,1001.06
2018-03-29T04:32:50.705Z,1001.08
2018-03-29T04:33:50.638Z,1001.03
2018-03-29T04:34:50.516Z,1001.07
2018-03-29T04:35:50.557Z,1001.04
2018-03-29T04:36:50.359Z,1001.02
2018-03-29T04:37:50.372Z,1001.03
2018-03-29T04:38:50.187Z,1001.03
2018-03-29T04:39:50.179Z,1001.00
2018-03-29T04:40:50.022Z,1001.02
2018-03-29T04:41:50.009Z,1001.02
2018-03-29T04:42:49.886Z,1001.02
2018-03-29T04:43:49.889Z,1001.04
2018-03-29T04:44:49.699Z,1000.98
2018-03-29T04:45:49.700Z,1000.99
2018-03-29T04:46:49.548Z,1001.00
2018-03-29T04:47:49.550Z,1001.01
2018-03-29T04:48:49.369Z,1000.99
2018-03-29T04:49:49.417Z,1000.99
2018-03-29T04:50:49.219Z,1000.99
2018-03-29T04:51:49.226Z,1001.02
2018-03-29T04:52:49.100Z,1001.01
2018-03-29T04:53:49.075Z,1001.00
2018-03-29T04:54:48.875Z,1000.99
2018-03-29T04:55:48.947Z,1001.03
2018-03-29T04:56:48.713Z,1001.02
2018-03-29T04:57:48.782Z,1001.05
2018-03-29T04:58:48.555Z,1001.02
2018-03-29T04:59:48.560Z,1001.06
2018-03-29T05:00:48.395Z,1001.10
2018-03-29T05:01:48.366Z,1001.10
2018-03-29T05:02:48.223Z,1001.12
2018-03-29T05:03:48.210Z,1001.10
2018-03-29T05:04:48.069Z,1001.11
2018-03-29T05:05:48.085Z,1001.11
2018-03-29T05:06:47.898Z,1001.13
2018-03-29T05:07:47.893Z,1001.13
2018-03-29T05:08:47.747Z,1001.13
2018-03-29T05:09:47.808Z,1001.13
2018-03-29T05:10:47.584Z,1001.12
2018-03-29T05:11:48.021Z,1001.16
2018-03-29T05:12:47.411Z,1001.08
2018-03-29T05:13:47.471Z,1001.08
2018-03-29T05:14:47.240Z,1001.12
2018-03-29T05:15:47.230Z,1001.14
2018-03-29T05:16:47.090Z,1001.15
2018-03-29T05:17:47.043Z,1001.14
2018-03-29T05:18:46.936Z,1001.15
2018-03-29T05:19:46.976Z,1001.17
2018-03-29T05:20:46.748Z,1001.16
2018-03-29T05:21:46.773Z,1001.16
2018-03-29T05:22:46.592Z,1001.20
2018-03-29T05:23:46.602Z,1001.26
2018-03-29T05:24:46.425Z,1001.25
2018-03-29T05:25:46.380Z,1001.21
2018-03-29T05:26:46.255Z,1001.20
2018-03-29T05:27:46.286Z,1001.25
2018-03-29T05:28:46.252Z,1001.21
2018-03-29T05:31:30.838Z,1001.23
2018-03-29T05:34:10.234Z,1001.19
2018-03-29T05:36:52.229Z,1001.25
2018-03-29T05:37:52.200Z,1001.29
2018-03-29T05:38:52.227Z,1001.29
2018-03-29T05:39:52.044Z,1001.28
2018-03-29T05:40:51.939Z,1001.25
2018-03-29T05:41:52.788Z,1001.26
2018-03-29T05:42:51.734Z,1001.27
2018-03-29T06:02:31.712Z,1001.25
2018-03-29T06:03:31.679Z,1001.29
2018-03-29T06:04:32.293Z,1001.25
2018-03-29T06:05:31.515Z,1001.28
2018-03-29T06:06:31.373Z,1001.28
2018-03-29T06:07:31.434Z,1001.30
2018-03-29T06:08:31.208Z,1001.27
2018-03-29T06:09:31.213Z,1001.28
2018-03-29T06:10:31.046Z,1001.33
2018-03-29T06:11:32.069Z,1001.27
2018-03-29T06:12:30.882Z,1001.30
2018-03-29T06:13:30.820Z,1001.36
2018-03-29T06:14:30.720Z,1001.34
2018-03-29T06:15:30.738Z,1001.30
2018-03-29T06:16:30.561Z,1001.32
2018-03-29T06:17:30.540Z,1001.36
2018-03-29T06:18:30.386Z,1001.37
2018-03-29T06:19:30.349Z,1001.39
2018-03-29T06:20:30.235Z,1001.36
2018-03-29T06:21:30.302Z,1001.37
2018-03-29T06:22:30.062Z,1001.37
2018-03-29T06:23:30.075Z,1001.34
2018-03-29T06:24:29.892Z,1001.38
2018-03-29T06:25:29.882Z,1001.36
2018-03-29T06:26:29.748Z,1001.42
2018-03-29T06:27:29.690Z,1001.37
2018-03-29T06:28:29.582Z,1001.37
2018-03-29T06:29:29.590Z,1001.40
2018-03-29T06:30:29.407Z,1001.40
2018-03-29T06:31:29.407Z,1001.44
2018-03-29T06:32:29.272Z,1001.48
2018-03-29T06:33:29.210Z,1001.48
2018-03-29T06:34:29.079Z,1001.45
2018-03-29T06:35:29.122Z,1001.46
2018-03-29T06:36:28.939Z,1001.49
2018-03-29T06:37:28.949Z,1001.50
2018-03-29T06:38:28.756Z,1001.52
2018-03-29T06:39:28.736Z,1001.47
2018-03-29T06:40:28.593Z,1001.51
2018-03-29T06:41:28.578Z,1001.51
2018-03-29T06:42:28.422Z,1001.48
2018-03-29T06:43:28.463Z,1001.52
2018-03-29T06:44:28.267Z,1001.56
2018-03-29T06:45:28.270Z,1001.52
2018-03-29T06:46:28.127Z,1001.55
2018-03-29T06:47:28.111Z,1001.56
2018-03-29T06:48:27.945Z,1001.54
2018-03-29T06:49:28.063Z,1001.52
2018-03-29T06:50:27.775Z,1001.50
2018-03-29T06:51:27.800Z,1001.55
2018-03-29T06:52:27.635Z,1001.57
2018-03-29T06:53:27.604Z,1001.52
2018-03-29T06:54:27.446Z,1001.55
2018-03-29T06:55:27.415Z,1001.54
2018-03-29T06:56:27.290Z,1001.59
2018-03-29T06:57:27.363Z,1001.60
2018-03-29T06:58:27.122Z,1001.60
2018-03-29T06:59:27.136Z,1001.58
2018-03-29T07:00:27.015Z,1001.55
2018-03-29T07:01:26.940Z,1001.55
2018-03-29T07:02:26.835Z,1001.60
2018-03-29T07:03:27.817Z,1001.56
2018-03-29T07:04:26.634Z,1001.56
2018-03-29T07:05:26.659Z,1001.64
2018-03-29T07:06:26.478Z,1001.66
2018-03-29T07:07:26.509Z,1001.59
2018-03-29T07:08:26.315Z,1001.64
2018-03-29T07:09:26.290Z,1001.65
2018-03-29T07:10:26.269Z,1001.61
2018-03-29T07:11:26.191Z,1001.63
2018-03-29T07:12:26.005Z,1001.65
2018-03-29T07:13:26.038Z,1001.66
2018-03-29T07:14:25.827Z,1001.65
2018-03-29T07:15:25.822Z,1001.64
2018-03-29T07:16:25.675Z,1001.62
2018-03-29T07:17:25.712Z,1001.62
2018-03-29T07:18:25.515Z,1001.67
2018-03-29T07:19:25.517Z,1001.65
2018-03-29T07:20:25.337Z,1001.63
2018-03-29T07:21:25.325Z,1001.68
2018-03-29T07:22:25.169Z,1001.66
2018-03-29T07:23:25.174Z,1001.68
2018-03-29T07:24:25.028Z,1001.68
2018-03-29T07:25:25.050Z,1001.68
2018-03-29T07:26:24.844Z,1001.69
2018-03-29T07:27:24.866Z,1001.64
2018-03-29T07:28:24.696Z,1001.67
2018-03-29T07:29:24.663Z,1001.65
2018-03-29T07:30:24.588Z,1001.69
2018-03-29T07:31:24.481Z,1001.69
2018-03-29T07:32:24.380Z,1001.73
2018-03-29T07:33:24.446Z,1001.67
2018-03-29T07:34:24.216Z,1001.75
2018-03-29T07:35:24.202Z,1001.73
2018-03-29T07:36:24.042Z,1001.77
2018-03-29T07:37:24.004Z,1001.79
2018-03-29T07:38:23.876Z,1001.72
2018-03-29T07:39:23.843Z,1001.73
2018-03-29T07:40:23.747Z,1001.83
2018-03-29T07:41:23.730Z,1001.83
2018-03-29T07:42:23.556Z,1001.84
2018-03-29T07:43:23.543Z,1001.86
2018-03-29T07:44:23.400Z,1001.77
2018-03-29T07:45:23.348Z,1001.93
2018-03-29T07:46:23.261Z,1001.88
2018-03-29T07:47:23.251Z,1001.88
2018-03-29T07:48:23.091Z,1001.83
2018-03-29T07:49:23.092Z,1001.84
2018-03-29T07:50:22.900Z,1001.84
2018-03-29T07:51:22.873Z,1001.86
2018-03-29T07:52:22.746Z,1001.89
2018-03-29T07:53:22.786Z,1001.91
2018-03-29T07:54:22.581Z,1001.93
2018-03-29T07:55:22.586Z,1001.92
2018-03-29T07:56:22.417Z,1001.92
2018-03-29T07:57:22.391Z,1001.92
2018-03-29T07:58:22.240Z,1001.97
2018-03-29T07:59:22.251Z,1001.90
2018-03-29T08:00:22.162Z,1001.90
2018-03-29T08:01:22.126Z,1001.96
2018-03-29T08:02:21.919Z,1001.90
2018-03-29T08:03:21.919Z,1001.92
2018-03-29T08:04:21.765Z,1001.99
2018-03-29T08:05:21.770Z,1001.97
2018-03-29T08:06:22.318Z,1001.97
2018-03-29T08:07:21.638Z,1001.98
2018-03-29T08:08:21.431Z,1001.98
2018-03-29T08:09:21.542Z,1001.98
2018-03-29T08:10:21.304Z,1002.01
2018-03-29T08:11:21.254Z,1002.05
2018-03-29T08:12:21.133Z,1002.04
2018-03-29T08:13:21.066Z,1002.01
2018-03-29T08:14:20.950Z,1002.03
2018-03-29T08:15:21.011Z,1002.06
2018-03-29T08:16:20.798Z,1002.07
2018-03-29T08:17:20.797Z,1002.06
2018-03-29T08:18:20.631Z,1002.08
2018-03-29T08:19:20.704Z,1002.04
2018-03-29T08:20:20.490Z,1002.07
2018-03-29T08:21:20.441Z,1002.06
2018-03-29T08:22:20.324Z,1002.04
2018-03-29T08:23:20.311Z,1002.09
2018-03-29T08:24:20.139Z,1002.07
2018-03-29T08:25:20.153Z,1002.05
2018-03-29T08:26:20.154Z,1002.12
2018-03-29T08:27:19.927Z,1002.15
2018-03-29T08:28:19.818Z,1002.09
2018-03-29T08:29:19.885Z,1002.10
2018-03-29T08:30:19.658Z,1002.18
2018-03-29T08:31:19.676Z,1002.18
2018-03-29T08:32:19.521Z,1002.23
2018-03-29T08:33:19.459Z,1002.14
2018-03-29T08:34:19.331Z,1002.13
2018-03-29T08:35:19.375Z,1002.09
2018-03-29T08:36:19.219Z,1002.15
2018-03-29T08:37:19.208Z,1002.17
2018-03-29T08:38:19.007Z,1002.15
2018-03-29T08:39:19.018Z,1002.18
2018-03-29T08:40:18.848Z,1002.16
2018-03-29T08:41:18.924Z,1002.20
2018-03-29T08:42:18.697Z,1002.27
2018-03-29T08:43:18.712Z,1002.26
2018-03-29T08:44:18.536Z,1002.25
2018-03-29T08:45:18.503Z,1002.26
2018-03-29T08:46:18.368Z,1002.31
2018-03-29T08:47:18.349Z,1002.28
2018-03-29T08:48:18.219Z,1002.32
2018-03-29T08:49:18.252Z,1002.34
2018-03-29T08:50:18.034Z,1002.29
2018-03-29T08:51:18.050Z,1002.30
2018-03-29T08:52:17.936Z,1002.35
2018-03-29T08:53:17.904Z,1002.33
2018-03-29T08:54:17.719Z,1002.37
2018-03-29T08:55:17.754Z,1002.24
2018-03-29T08:56:17.552Z,1002.30
2018-03-29T08:57:17.595Z,1002.31
2018-03-29T08:58:17.390Z,1002.38
2018-03-29T08:59:17.376Z,1002.44
2018-03-29T09:00:17.236Z,1002.41
2018-03-29T09:01:17.287Z,1002.41
2018-03-29T09:02:17.194Z,1002.34
2018-03-29T09:03:17.146Z,1002.36
2018-03-29T09:04:16.915Z,1002.32
2018-03-29T09:05:16.899Z,1002.34
2018-03-29T09:06:16.777Z,1002.37
2018-03-29T09:07:16.725Z,1002.35
2018-03-29T09:08:16.610Z,1002.33
2018-03-29T09:09:16.629Z,1002.31
2018-03-29T09:10:16.428Z,1002.34
2018-03-29T09:11:16.436Z,1002.26
2018-03-29T09:12:16.297Z,1002.27
2018-03-29T09:13:16.251Z,1002.28
2018-03-29T09:14:16.131Z,1002.30
2018-03-29T09:15:16.168Z,1002.39
2018-03-29T09:16:15.960Z,1002.46
2018-03-29T09:17:15.994Z,1002.49
2018-03-29T09:18:15.810Z,1002.52
2018-03-29T09:19:15.775Z,1002.39
2018-03-29T09:20:15.626Z,1002.36
2018-03-29T09:21:15.695Z,1002.38
2018-03-29T09:22:15.470Z,1002.40
2018-03-29T09:23:15.518Z,1002.41
2018-03-29T09:24:15.333Z,1002.42
2018-03-29T09:25:15.342Z,1002.43
2018-03-29T09:26:15.155Z,1002.41
2018-03-29T09:27:16.378Z,1002.45
2018-03-29T09:28:15.013Z,1002.43
2018-03-29T09:29:15.669Z,1002.42
2018-03-29T09:30:14.843Z,1002.43
2018-03-29T09:31:14.832Z,1002.40
2018-03-29T09:32:14.702Z,1002.40
2018-03-29T09:33:14.632Z,1002.41
2018-03-29T09:34:14.528Z,1002.44
2018-03-29T09:35:14.539Z,1002.46
2018-03-29T09:36:14.353Z,1002.55
2018-03-29T09:37:14.347Z,1002.53
2018-03-29T09:38:14.198Z,1002.44
2018-03-29T09:39:14.199Z,1002.42
2018-03-29T09:40:14.064Z,1002.48
2018-03-29T09:41:14.150Z,1002.47
2018-03-29T09:42:13.893Z,1002.48
2018-03-29T09:43:13.881Z,1002.48
2018-03-29T09:44:13.732Z,1002.48
2018-03-29T09:45:13.718Z,1002.44
2018-03-29T09:46:13.560Z,1002.45
2018-03-29T09:47:13.603Z,1002.50
2018-03-29T09:48:13.400Z,1002.59
2018-03-29T09:49:13.401Z,1002.61
2018-03-29T09:50:13.258Z,1002.89
2018-03-29T09:51:14.049Z,1002.58
2018-03-29T09:52:13.078Z,1002.59
2018-03-29T09:53:13.124Z,1002.67
2018-03-29T09:54:12.919Z,1002.64
2018-03-29T09:55:12.976Z,1002.64
2018-03-29T09:56:12.773Z,1002.59
2018-03-29T09:57:12.737Z,1002.64
2018-03-29T09:58:12.714Z,1002.62
2018-03-29T09:59:12.648Z,1002.51
2018-03-29T10:00:12.466Z,1002.51
2018-03-29T10:01:12.524Z,1002.47
2018-03-29T10:02:12.287Z,1002.49
2018-03-29T10:03:12.269Z,1002.46
2018-03-29T10:04:12.136Z,1002.47
2018-03-29T10:05:12.110Z,1002.47
2018-03-29T10:06:11.973Z,1002.49
2018-03-29T10:07:11.992Z,1002.46
2018-03-29T10:08:11.865Z,1002.53
2018-03-29T10:09:11.805Z,1002.57
2018-03-29T10:10:11.651Z,1002.60
2018-03-29T10:11:11.674Z,1002.65
2018-03-29T10:12:11.520Z,1002.67
2018-03-29T10:13:11.529Z,1002.57
2018-03-29T10:14:11.337Z,1002.62
2018-03-29T10:15:11.384Z,1003.16
2018-03-29T10:16:11.200Z,1002.84
2018-03-29T10:17:11.129Z,1002.81
2018-03-29T10:18:11.008Z,1002.67
2018-03-29T10:19:11.042Z,1002.55
2018-03-29T10:20:10.873Z,1002.45
2018-03-29T10:22:52.780Z,1002.48
2018-03-29T10:23:52.747Z,1002.47
2018-03-29T10:24:52.625Z,1002.41
2018-03-29T10:25:52.695Z,1002.40
2018-03-29T10:26:52.463Z,1002.38
2018-03-29T10:27:53.543Z,1002.34
2018-03-29T10:28:52.315Z,1002.25
2018-03-29T10:29:52.271Z,1002.29
2018-03-29T10:30:52.172Z,1002.30
2018-03-29T10:31:52.214Z,1002.29
2018-03-29T10:32:51.981Z,1002.23
2018-03-29T10:33:51.993Z,1002.27
2018-03-29T10:34:51.859Z,1002.30
2018-03-29T10:35:51.895Z,1002.27
2018-03-29T10:36:51.674Z,1002.24
2018-03-29T10:37:51.747Z,1002.22
2018-03-29T10:38:51.509Z,1002.21
2018-03-29T10:39:51.516Z,1002.22
2018-03-29T10:40:51.353Z,1002.21
2018-03-29T10:41:51.332Z,1002.23
2018-03-29T10:42:51.218Z,1002.22
2018-03-29T10:43:51.243Z,1002.30
2018-03-29T10:44:51.037Z,1002.30
2018-03-29T10:45:51.156Z,1002.25
2018-03-29T10:46:50.891Z,1002.27
2018-03-29T10:47:50.890Z,1002.25
2018-03-29T10:48:50.770Z,1002.28
2018-03-29T10:49:50.684Z,1002.31
2018-03-29T10:50:50.562Z,1002.30
2018-03-29T10:51:50.619Z,1002.32
2018-03-29T10:52:50.414Z,1002.33
2018-03-29T10:53:50.387Z,1002.46
2018-03-29T10:54:50.239Z,1002.34
2018-03-29T10:55:50.190Z,1002.34
2018-03-29T10:56:50.072Z,1002.31
2018-03-29T10:57:50.138Z,1002.36
2018-03-29T10:58:49.933Z,1002.32
2018-03-29T10:59:49.928Z,1002.32
2018-03-29T11:00:49.753Z,1002.35
2018-03-29T11:01:49.712Z,1002.36
2018-03-29T11:02:49.584Z,1002.49
2018-03-29T11:03:49.672Z,1003.88
2018-03-29T11:04:49.451Z,1002.88
2018-03-29T11:05:49.464Z,1002.96
2018-03-29T11:06:49.280Z,1004.24
2018-03-29T11:07:49.248Z,1006.12
2018-03-29T11:08:49.149Z,1007.30
2018-03-29T11:09:49.159Z,1007.63
2018-03-29T11:10:49.002Z,1007.87
2018-03-29T11:11:48.964Z,1006.60
2018-03-29T11:12:48.807Z,1003.98
2018-03-29T11:13:48.804Z,1003.93
2018-03-29T11:14:48.657Z,1003.30
2018-03-29T11:15:48.687Z,1003.39
2018-03-29T11:16:48.482Z,1002.53
2018-03-29T11:17:48.518Z,1002.57
2018-03-29T11:18:48.340Z,1002.40
2018-03-29T11:19:48.363Z,1002.33
2018-03-29T11:20:48.180Z,1002.36
2018-03-29T11:21:48.233Z,1002.37
2018-03-29T11:22:48.010Z,1002.40
2018-03-29T11:23:48.030Z,1002.36
2018-03-29T11:24:47.874Z,1002.44
2018-03-29T11:25:47.842Z,1002.41
2018-03-29T11:26:47.715Z,1002.41
2018-03-29T11:27:47.737Z,1002.43
2018-03-29T11:28:47.545Z,1002.43
2018-03-29T11:29:47.592Z,1002.48
2018-03-29T11:30:47.390Z,1002.54
2018-03-29T11:31:47.359Z,1002.50
2018-03-29T11:32:47.227Z,1002.48
2018-03-29T11:33:47.267Z,1002.53
2018-03-29T11:34:47.109Z,1002.55
2018-03-29T11:35:47.108Z,1002.57
2018-03-29T11:36:46.960Z,1002.61
2018-03-29T11:37:46.891Z,1002.60
2018-03-29T11:38:46.812Z,1002.68
2018-03-29T11:39:46.961Z,1002.73
2018-03-29T11:40:46.594Z,1002.83
2018-03-29T11:41:46.599Z,1004.13
2018-03-29T11:42:46.434Z,1009.94
2018-03-29T11:43:46.416Z,1011.16
2018-03-29T11:44:46.309Z,1010.25
2018-03-29T11:45:46.317Z,1003.82
2018-03-29T11:46:46.151Z,1003.76
2018-03-29T11:47:46.147Z,1004.30
2018-03-29T11:48:45.960Z,1005.69
2018-03-29T11:49:45.944Z,1003.65
2018-03-29T11:50:45.815Z,1002.56
2018-03-29T11:51:45.853Z,1002.83
2018-03-29T11:52:45.652Z,1002.63
2018-03-29T11:53:45.659Z,1002.79
2018-03-29T11:54:45.484Z,1004.06
2018-03-29T11:55:45.503Z,1002.75
2018-03-29T11:56:45.328Z,1002.91
2018-03-29T11:57:45.394Z,1003.52
2018-03-29T11:58:45.188Z,1003.08
2018-03-29T11:59:45.187Z,1002.71
2018-03-29T12:00:45.044Z,1002.70
2018-03-29T12:01:45.071Z,1002.53
2018-03-29T12:02:44.869Z,1002.39
2018-03-29T12:03:44.910Z,1002.45
2018-03-29T12:04:44.707Z,1002.48
2018-03-29T12:05:44.759Z,1002.47
2018-03-29T12:06:44.572Z,1002.51
2018-03-29T12:07:44.546Z,1002.55
2018-03-29T12:08:44.381Z,1002.51
2018-03-29T12:09:44.343Z,1002.56
2018-03-29T12:10:44.241Z,1002.53
2018-03-29T12:11:44.245Z,1002.59
2018-03-29T12:12:44.110Z,1002.70
2018-03-29T12:13:44.057Z,1002.71
2018-03-29T12:14:43.902Z,1002.71
2018-03-29T12:15:43.895Z,1002.71
2018-03-29T12:16:43.746Z,1002.71
2018-03-29T12:17:43.800Z,1002.77
2018-03-29T12:18:43.596Z,1002.77
2018-03-29T12:19:43.582Z,1002.76
2018-03-29T12:20:43.432Z,1002.80
2018-03-29T12:21:43.428Z,1002.88
2018-03-29T12:22:43.303Z,1002.87
2018-03-29T12:23:43.289Z,1002.85
2018-03-29T12:24:43.136Z,1002.87
2018-03-29T12:25:43.118Z,1002.86
2018-03-29T12:26:42.949Z,1002.89
2018-03-29T12:27:42.941Z,1002.93
2018-03-29T12:28:42.811Z,1002.90
2018-03-29T12:29:42.830Z,1002.75
2018-03-29T12:30:42.634Z,1002.84
2018-03-29T12:31:42.673Z,1002.82